createdAt,value
2022-10-19T00:03:07.752Z,14.30
2022-10-19T00:09:50.628Z,14.30
2022-10-19T00:16:35.897Z,14.10
2022-10-19T00:23:18.229Z,14.00
2022-10-19T00:30:01.350Z,13.90
2022-10-19T00:36:43.760Z,14.40
2022-10-19T00:43:30.053Z,13.90
2022-10-19T00:50:14.756Z,14.20
2022-10-19T00:56:58.571Z,14.10
2022-10-19T01:03:41.292Z,14.80
2022-10-19T01:10:41.558Z,14.80
2022-10-19T01:17:49.448Z,14.70
2022-10-19T01:25:11.236Z,14.50
2022-10-19T01:32:06.342Z,14.40
2022-10-19T01:39:05.984Z,15.10
2022-10-19T01:45:54.337Z,14.60
2022-10-19T01:52:40.136Z,14.90
2022-10-19T01:59:23.500Z,14.90
2022-10-19T02:06:08.825Z,14.90
2022-10-19T02:12:53.687Z,15.10
2022-10-19T02:19:36.429Z,15.30
2022-10-19T02:26:19.498Z,15.00
2022-10-19T02:33:01.841Z,15.00
2022-10-19T02:39:44.195Z,15.60
2022-10-19T02:46:48.479Z,14.90
2022-10-19T02:53:30.812Z,15.20
2022-10-19T03:00:13.352Z,15.30
2022-10-19T03:06:55.682Z,15.20
2022-10-19T03:13:38.079Z,15.50
2022-10-19T03:20:20.513Z,15.50
2022-10-19T03:27:03.030Z,15.60
2022-10-19T03:33:45.610Z,16.10
2022-10-19T03:40:27.920Z,15.60
2022-10-19T03:47:10.222Z,16.10
2022-10-19T03:53:53.986Z,15.50
2022-10-19T04:00:36.300Z,15.90
2022-10-19T04:07:18.694Z,16.00
2022-10-19T04:14:01.770Z,15.70
2022-10-19T04:20:44.121Z,15.60
2022-10-19T04:27:26.443Z,15.50
2022-10-19T04:34:09.224Z,15.00
2022-10-19T04:40:51.560Z,15.00
2022-10-19T04:47:34.227Z,14.80
2022-10-19T04:54:16.657Z,14.80
2022-10-19T05:00:59.062Z,14.50
2022-10-19T05:07:41.656Z,14.40
2022-10-19T05:14:24.157Z,14.50
2022-10-19T05:21:14.462Z,14.60
2022-10-19T05:27:56.810Z,14.40
2022-10-19T05:34:39.235Z,14.80
2022-10-19T05:41:22.125Z,14.30
2022-10-19T05:48:04.930Z,14.40
2022-10-19T05:54:47.263Z,14.50
2022-10-19T06:01:30.377Z,14.50
2022-10-19T06:08:12.716Z,14.60
2022-10-19T06:14:55.042Z,14.50
2022-10-19T06:21:39.620Z,14.50
2022-10-19T06:28:24.376Z,14.60
2022-10-19T06:35:07.368Z,14.60
2022-10-19T06:41:49.655Z,14.70
2022-10-19T06:48:34.409Z,14.80
2022-10-19T06:55:17.875Z,14.90
2022-10-19T07:02:00.170Z,15.00
2022-10-19T07:08:43.883Z,15.50
2022-10-19T07:15:26.809Z,16.20
2022-10-19T07:22:09.226Z,16.80
2022-10-19T07:28:53.684Z,16.90
2022-10-19T07:35:36.836Z,17.30
2022-10-19T07:42:19.212Z,17.40
2022-10-19T07:49:02.018Z,17.30
2022-10-19T07:55:44.387Z,17.80
2022-10-19T08:02:39.649Z,17.40
2022-10-19T08:16:40.519Z,18.20
2022-10-19T08:30:23.445Z,17.50
2022-10-19T08:37:14.728Z,17.20
2022-10-19T08:44:39.117Z,17.10
2022-10-19T08:51:21.865Z,17.40
2022-10-19T08:58:43.279Z,17.80
2022-10-19T09:05:35.166Z,17.60
2022-10-19T09:12:24.727Z,17.40
2022-10-19T09:19:17.860Z,17.40
2022-10-19T09:26:00.227Z,17.70
2022-10-19T09:32:43.771Z,17.80
2022-10-19T09:39:29.574Z,17.80
2022-10-19T09:46:20.357Z,17.80
2022-10-19T09:53:04.932Z,18.20
2022-10-19T09:59:52.990Z,18.60
2022-10-19T10:06:36.508Z,18.20
2022-10-19T10:20:28.275Z,18.60
2022-10-19T10:27:34.441Z,17.90
2022-10-19T10:34:45.372Z,17.90
2022-10-19T10:41:30.931Z,18.50
2022-10-19T10:48:27.387Z,18.70
2022-10-19T10:55:09.802Z,19.00
2022-10-19T11:02:14.511Z,19.10
2022-10-19T11:09:15.881Z,19.60
2022-10-19T11:16:12.521Z,19.80
2022-10-19T11:23:05.802Z,20.10
2022-10-19T11:30:16.514Z,19.70
2022-10-19T11:37:33.398Z,19.80
2022-10-19T11:44:23.219Z,19.40
2022-10-19T11:51:21.024Z,19.10
2022-10-19T11:58:25.417Z,19.10
2022-10-19T12:05:13.305Z,19.00
2022-10-19T12:12:26.257Z,19.10
2022-10-19T12:19:17.346Z,19.00
2022-10-19T12:26:03.434Z,19.60
2022-10-19T12:33:18.520Z,19.90
2022-10-19T12:40:07.206Z,19.90
2022-10-19T12:47:06.567Z,19.30
2022-10-19T12:53:49.530Z,19.20
2022-10-19T13:00:37.621Z,19.00
2022-10-19T13:07:20.889Z,19.50
2022-10-19T13:14:07.485Z,19.70
2022-10-19T13:20:53.622Z,20.00
2022-10-19T13:27:37.923Z,19.90
2022-10-19T13:34:24.108Z,19.90
2022-10-19T13:41:38.337Z,20.10
2022-10-19T13:48:31.994Z,20.40
2022-10-19T13:55:28.493Z,20.80
2022-10-19T14:02:29.142Z,20.10
2022-10-19T14:09:36.428Z,19.80
2022-10-19T14:16:22.832Z,19.60
2022-10-19T14:23:19.599Z,19.60
2022-10-19T14:30:02.904Z,19.70
2022-10-19T14:36:48.198Z,19.40
2022-10-19T14:43:32.627Z,19.40
2022-10-19T14:50:15.061Z,19.20
2022-10-19T14:57:12.034Z,19.10
2022-10-19T15:03:55.078Z,19.10
2022-10-19T15:10:46.360Z,19.20
2022-10-19T15:17:31.334Z,18.90
2022-10-19T15:24:26.004Z,18.90
2022-10-19T15:31:25.821Z,18.60
2022-10-19T15:45:37.585Z,18.50
2022-10-19T15:52:26.272Z,18.20
2022-10-19T15:59:19.951Z,18.00
2022-10-19T16:06:02.743Z,17.90
2022-10-19T16:12:45.304Z,17.60
2022-10-19T16:19:27.670Z,17.90
2022-10-19T16:26:13.863Z,17.80
2022-10-19T16:32:56.178Z,17.80
2022-10-19T16:39:38.603Z,17.70
2022-10-19T16:46:22.845Z,17.50
2022-10-19T16:53:10.329Z,17.60
2022-10-19T17:06:41.701Z,16.90
2022-10-19T17:13:24.091Z,16.80
2022-10-19T17:20:07.037Z,16.50
2022-10-19T17:26:53.312Z,16.40
2022-10-19T17:33:36.922Z,16.30
2022-10-19T17:40:19.276Z,16.30
2022-10-19T17:47:01.691Z,15.70
2022-10-19T17:53:45.428Z,15.80
2022-10-19T18:00:27.820Z,15.60
2022-10-19T18:07:10.159Z,15.80
2022-10-19T18:13:55.158Z,15.40
2022-10-19T18:20:39.907Z,15.10
2022-10-19T18:27:22.296Z,14.80
2022-10-19T18:34:06.916Z,14.90
2022-10-19T18:40:49.339Z,14.90
2022-10-19T18:47:31.731Z,15.10
2022-10-19T18:54:14.088Z,15.00
2022-10-19T19:01:19.134Z,14.80
2022-10-19T19:08:01.561Z,14.70
2022-10-19T19:14:45.092Z,14.90
2022-10-19T19:21:29.615Z,14.60
2022-10-19T19:28:15.097Z,14.40
2022-10-19T19:34:57.437Z,14.70
2022-10-19T19:41:42.159Z,14.60
2022-10-19T19:48:24.743Z,14.50
2022-10-19T19:55:07.406Z,14.70
2022-10-19T20:01:49.773Z,14.80
2022-10-19T20:08:32.921Z,14.80
2022-10-19T20:15:17.905Z,14.70
2022-10-19T20:22:00.367Z,14.60
2022-10-19T20:28:42.787Z,14.40
2022-10-19T20:35:26.203Z,14.20
2022-10-19T20:42:08.532Z,14.10
2022-10-19T20:48:52.115Z,14.00
2022-10-19T20:55:34.452Z,13.90
2022-10-19T21:02:22.492Z,13.80
2022-10-19T21:09:05.365Z,13.70
2022-10-19T21:15:47.812Z,13.60
2022-10-19T21:22:32.288Z,13.50
2022-10-19T21:29:17.153Z,13.40
2022-10-19T21:36:04.716Z,13.40
2022-10-19T21:42:47.064Z,13.30
2022-10-19T21:49:29.409Z,13.30
2022-10-19T21:56:11.834Z,13.30
2022-10-19T22:02:54.496Z,13.20
2022-10-19T22:09:36.797Z,13.10
2022-10-19T22:16:20.627Z,13.10
2022-10-19T22:23:04.894Z,13.10
2022-10-19T22:29:47.884Z,13.00
2022-10-19T22:36:30.882Z,12.80
2022-10-19T22:43:13.327Z,12.60
2022-10-19T22:50:01.149Z,12.50
2022-10-19T22:56:43.756Z,12.30
2022-10-19T23:03:26.155Z,12.30
2022-10-19T23:10:15.127Z,12.20
2022-10-19T23:16:58.631Z,12.20
2022-10-19T23:23:41.255Z,12.20
2022-10-19T23:30:23.614Z,12.10
2022-10-19T23:37:05.922Z,11.80
2022-10-19T23:51:03.473Z,11.70
2022-10-19T23:57:45.800Z,11.70
